Time;durP1;ratioP1;P1;durP2;ratioP2;P2;SDS_P1;SDS_P2;PMS_P1;PMS_P2;Temp;Humidity;BMP_temperature;BMP_pressure;BME280_temperature;BME280_humidity;BME280_pressure;Samples;Min_cycle;Max_cycle;Signal;HPM_P1;HPM_P2
2021/09/21 00:01:55;;;;;;;2.22;2.00;;;;;16.60;102626.00;;;;5055323;28;20223;-78
2021/09/21 00:04:26;;;;;;;3.28;2.13;;;;;16.60;102627.00;;;;5053081;28;20657;-78
2021/09/21 00:06:54;;;;;;;3.05;2.28;;;;;16.60;102624.00;;;;5067475;28;20197;-78
2021/09/21 00:09:21;;;;;;;3.65;2.50;;;;;16.60;102622.00;;;;5051207;28;20202;-79
2021/09/21 00:11:49;;;;;;;2.90;2.03;;;;;16.60;102638.00;;;;5060883;28;20195;-79
2021/09/21 00:14:17;;;;;;;3.03;2.13;;;;;16.60;102644.00;;;;5061547;28;20208;-79
2021/09/21 00:16:45;;;;;;;2.80;2.17;;;;;16.60;102640.00;;;;5049704;28;20203;-78
2021/09/21 00:19:13;;;;;;;2.53;2.05;;;;;16.60;102640.00;;;;5051802;28;21894;-79
2021/09/21 00:21:40;;;;;;;2.63;2.42;;;;;16.60;102644.00;;;;5063413;28;20218;-78
2021/09/21 00:24:07;;;;;;;3.05;2.45;;;;;16.60;102651.00;;;;5062234;28;22300;-78
2021/09/21 00:26:35;;;;;;;3.17;2.28;;;;;16.60;102647.00;;;;5050146;28;20207;-79
2021/09/21 00:29:02;;;;;;;2.95;2.00;;;;;16.60;102653.00;;;;5052113;28;20199;-78
2021/09/21 00:31:37;;;;;;;5.22;2.28;;;;;16.50;102646.00;;;;5062388;28;20210;-79
2021/09/21 00:34:09;;;;;;;3.47;2.40;;;;;16.50;102652.00;;;;5052099;28;20205;-79
2021/09/21 00:36:37;;;;;;;2.95;2.42;;;;;16.50;102662.00;;;;5049043;28;20211;-79
2021/09/21 00:39:06;;;;;;;2.92;2.22;;;;;16.50;102658.00;;;;5049560;28;20199;-79
2021/09/21 00:41:35;;;;;;;3.72;2.15;;;;;16.50;102654.00;;;;5050180;28;20227;-79
2021/09/21 00:44:03;;;;;;;2.83;2.05;;;;;16.50;102654.00;;;;5048193;28;20223;-78
2021/09/21 00:46:30;;;;;;;4.05;2.35;;;;;16.50;102652.00;;;;5049082;28;20203;-79
2021/09/21 00:48:58;;;;;;;2.47;2.28;;;;;16.50;102652.00;;;;5047781;28;20196;-79
2021/09/21 00:51:26;;;;;;;5.15;2.25;;;;;16.40;102658.00;;;;5049002;28;20199;-79
2021/09/21 00:53:54;;;;;;;3.28;2.05;;;;;16.40;102654.00;;;;5048194;28;20196;-78
2021/09/21 00:56:21;;;;;;;4.30;2.28;;;;;16.40;102655.00;;;;5069215;28;20199;-78
2021/09/21 00:58:49;;;;;;;3.03;2.03;;;;;16.40;102656.00;;;;5059934;28;20617;-78
2021/09/21 01:01:16;;;;;;;3.65;2.20;;;;;16.40;102658.00;;;;5047957;28;20223;-79
2021/09/21 01:03:43;;;;;;;2.75;2.15;;;;;16.40;102658.00;;;;5047864;28;20199;-78
2021/09/21 01:06:11;;;;;;;2.65;1.83;;;;;16.40;102657.00;;;;5049228;28;20199;-78
2021/09/21 01:08:41;;;;;;;3.00;2.00;;;;;16.30;102657.00;;;;5047532;28;20200;-78
2021/09/21 01:11:10;;;;;;;2.72;2.05;;;;;16.30;102657.00;;;;5048355;28;20272;-78
2021/09/21 01:13:38;;;;;;;4.95;2.45;;;;;16.30;102655.00;;;;5047806;28;20291;-78
2021/09/21 01:16:06;;;;;;;3.47;2.25;;;;;16.30;102649.00;;;;5050507;28;20206;-78
2021/09/21 01:18:35;;;;;;;3.22;2.22;;;;;16.30;102650.00;;;;5048835;28;20669;-78
2021/09/21 01:21:04;;;;;;;3.53;2.63;;;;;16.30;102647.00;;;;5052410;28;20215;-78
2021/09/21 01:23:43;;;;;;;3.45;2.10;;;;;16.30;102641.00;;;;5048673;28;20200;-78
2021/09/21 01:26:10;;;;;;;2.08;1.77;;;;;16.30;102639.00;;;;5048287;28;20202;-78
2021/09/21 01:28:38;;;;;;;2.85;1.75;;;;;16.30;102643.00;;;;5049915;28;20195;-78
2021/09/21 01:31:05;;;;;;;2.20;1.80;;;;;16.20;102644.00;;;;5067320;28;20199;-78
2021/09/21 01:33:32;;;;;;;2.47;1.80;;;;;16.20;102640.00;;;;5058485;28;20202;-79
2021/09/21 01:36:00;;;;;;;2.20;1.70;;;;;16.20;102640.00;;;;5059347;28;20216;-78
2021/09/21 01:38:27;;;;;;;2.88;1.75;;;;;16.20;102640.00;;;;5051821;28;21057;-78
2021/09/21 01:40:56;;;;;;;2.72;1.75;;;;;16.10;102638.00;;;;5065897;28;20250;-78
2021/09/21 01:43:23;;;;;;;2.13;1.80;;;;;16.10;102618.00;;;;5065439;28;20198;-78
2021/09/21 01:45:51;;;;;;;2.28;2.05;;;;;16.10;102622.00;;;;5066142;28;20207;-78
2021/09/21 01:48:18;;;;;;;2.60;2.15;;;;;16.10;102614.00;;;;5051112;28;20207;-78
2021/09/21 01:50:50;;;;;;;2.65;2.05;;;;;16.00;102610.00;;;;5048753;28;20191;-78
2021/09/21 01:53:23;;;;;;;3.20;2.05;;;;;16.00;102602.00;;;;5047858;28;20649;-78
2021/09/21 01:58:50;;;;;;;2.28;2.05;;;;;15.90;102613.00;;;;5053367;28;20942;-78
2021/09/21 02:01:20;;;;;;;2.72;1.95;;;;;15.90;102608.00;;;;5055432;28;20215;-78
2021/09/21 02:03:48;;;;;;;2.60;2.05;;;;;15.90;102605.00;;;;5047296;28;20196;-78
2021/09/21 02:06:16;;;;;;;3.17;2.22;;;;;15.90;102608.00;;;;5066122;28;20198;-78
2021/09/21 02:08:43;;;;;;;2.40;1.73;;;;;15.90;102605.00;;;;5066967;28;20210;-78
2021/09/21 02:11:11;;;;;;;2.70;2.20;;;;;15.90;102616.00;;;;5054068;28;20198;-79
2021/09/21 02:13:40;;;;;;;3.10;2.10;;;;;15.80;102619.00;;;;5048660;28;20195;-78
2021/09/21 02:16:08;;;;;;;3.90;2.08;;;;;15.80;102613.00;;;;5047290;28;20195;-78
2021/09/21 02:18:36;;;;;;;2.75;2.08;;;;;15.80;102613.00;;;;5047556;28;20199;-78
2021/09/21 02:21:03;;;;;;;2.80;2.00;;;;;15.80;102616.00;;;;5053904;28;20198;-78
2021/09/21 02:23:30;;;;;;;3.15;2.08;;;;;15.80;102611.00;;;;5067631;28;20657;-78
2021/09/21 02:25:58;;;;;;;3.00;2.05;;;;;15.80;102612.00;;;;5061687;28;20199;-78
2021/09/21 02:28:25;;;;;;;2.78;2.45;;;;;15.80;102618.00;;;;5047796;28;20198;-78
2021/09/21 02:30:53;;;;;;;2.28;2.00;;;;;15.80;102611.00;;;;5062389;28;20198;-78
2021/09/21 02:33:21;;;;;;;2.88;2.00;;;;;15.80;102615.00;;;;5048200;28;20207;-78
2021/09/21 02:35:48;;;;;;;3.50;2.20;;;;;15.80;102622.00;;;;5060681;28;20233;-78
2021/09/21 02:38:15;;;;;;;2.45;1.98;;;;;15.80;102619.00;;;;5047910;28;20203;-78
2021/09/21 02:40:42;;;;;;;3.60;2.33;;;;;15.80;102622.00;;;;5051940;28;20234;-78
2021/09/21 02:43:10;;;;;;;2.67;1.98;;;;;15.90;102628.00;;;;5059174;28;20215;-79
2021/09/21 02:45:37;;;;;;;3.15;1.95;;;;;15.90;102629.00;;;;5053474;28;20206;-78
2021/09/21 02:48:06;;;;;;;3.47;2.10;;;;;15.90;102626.00;;;;5052121;28;20217;-79
2021/09/21 02:50:34;;;;;;;2.08;1.80;;;;;15.90;102629.00;;;;5051992;28;20204;-78
2021/09/21 02:53:02;;;;;;;3.15;1.90;;;;;15.90;102643.00;;;;5052343;28;20290;-78
2021/09/21 02:55:29;;;;;;;8.93;2.38;;;;;15.80;102645.00;;;;5062846;28;20202;-78
2021/09/21 02:57:56;;;;;;;2.10;1.85;;;;;15.90;102632.00;;;;5053321;28;20210;-78
2021/09/21 03:00:25;;;;;;;2.67;1.85;;;;;15.80;102641.00;;;;5056288;28;20196;-79
2021/09/21 03:02:53;;;;;;;2.70;2.10;;;;;15.90;102655.00;;;;5051530;28;20717;-78
2021/09/21 03:05:24;;;;;;;3.28;2.00;;;;;15.80;102658.00;;;;5059397;28;20292;-78
2021/09/21 03:07:56;;;;;;;1.98;1.75;;;;;15.80;102660.00;;;;5051700;28;20692;-78
2021/09/21 03:10:29;;;;;;;3.45;1.88;;;;;15.80;102660.00;;;;5059757;28;20183;-78
2021/09/21 03:18:32;;;;;;;3.38;2.15;;;;;15.80;102644.00;;;;5052751;28;20342;-78
2021/09/21 03:21:01;;;;;;;2.83;1.95;;;;;15.70;102642.00;;;;5051063;28;20192;-78
2021/09/21 03:23:29;;;;;;;2.03;1.83;;;;;15.70;102644.00;;;;5050513;28;20234;-78
2021/09/21 03:25:56;;;;;;;2.40;2.20;;;;;15.70;102646.00;;;;5050513;28;20200;-78
2021/09/21 03:28:23;;;;;;;2.60;1.88;;;;;15.70;102655.00;;;;5050212;28;20207;-78
2021/09/21 03:30:51;;;;;;;2.80;2.13;;;;;15.70;102652.00;;;;5050731;28;20206;-78
2021/09/21 03:33:18;;;;;;;2.67;2.08;;;;;15.70;102659.00;;;;5052527;28;20212;-78
2021/09/21 03:35:46;;;;;;;2.40;1.73;;;;;15.60;102660.00;;;;5050750;28;20226;-78
2021/09/21 03:38:14;;;;;;;3.22;1.85;;;;;15.60;102668.00;;;;5065390;28;20195;-78
2021/09/21 03:40:42;;;;;;;2.95;2.00;;;;;15.60;102658.00;;;;5049295;28;20281;-78
2021/09/21 03:43:10;;;;;;;2.10;1.88;;;;;15.60;102667.00;;;;5049823;28;20234;-79
2021/09/21 03:45:37;;;;;;;2.92;2.05;;;;;15.60;102677.00;;;;5051881;28;20199;-78
2021/09/21 03:48:06;;;;;;;2.65;1.90;;;;;15.50;102682.00;;;;5061511;28;20203;-78
2021/09/21 03:50:34;;;;;;;4.43;1.70;;;;;15.50;102689.00;;;;5068800;28;20217;-78
2021/09/21 03:53:01;;;;;;;2.22;1.60;;;;;15.50;102688.00;;;;5068238;28;20230;-78
2021/09/21 03:55:30;;;;;;;2.20;1.85;;;;;15.50;102678.00;;;;5067257;28;20195;-78
2021/09/21 03:57:58;;;;;;;2.53;2.20;;;;;15.50;102679.00;;;;5054617;28;20673;-78
2021/09/21 04:00:25;;;;;;;3.83;1.90;;;;;15.50;102693.00;;;;5065589;28;20210;-78
2021/09/21 04:02:52;;;;;;;4.00;1.50;;;;;15.40;102699.00;;;;5050371;28;20230;-78
2021/09/21 04:05:20;;;;;;;2.80;1.73;;;;;15.40;102697.00;;;;5050214;28;20207;-78
2021/09/21 04:07:49;;;;;;;2.33;1.52;;;;;15.40;102691.00;;;;5050369;28;20583;-78
2021/09/21 04:10:16;;;;;;;2.47;1.77;;;;;15.40;102695.00;;;;5054699;28;20198;-78
2021/09/21 04:12:45;;;;;;;2.13;1.42;;;;;15.30;102705.00;;;;5049832;28;20207;-78
2021/09/21 04:15:12;;;;;;;2.30;1.52;;;;;15.30;102699.00;;;;5058858;28;20206;-78
2021/09/21 04:17:40;;;;;;;1.70;1.48;;;;;15.30;102693.00;;;;5057751;28;20603;-78
2021/09/21 04:20:08;;;;;;;2.25;1.70;;;;;15.30;102694.00;;;;5049031;28;20204;-78
2021/09/21 04:22:36;;;;;;;6.65;1.90;;;;;15.30;102703.00;;;;5050171;28;20219;-78
2021/09/21 04:25:04;;;;;;;2.83;1.83;;;;;15.30;102717.00;;;;5050118;28;20442;-78
2021/09/21 04:27:32;;;;;;;2.25;1.50;;;;;15.20;102703.00;;;;5050859;28;20196;-78
2021/09/21 04:30:03;;;;;;;2.60;1.58;;;;;15.20;102717.00;;;;5050484;28;21017;-78
2021/09/21 04:32:30;;;;;;;2.38;1.92;;;;;15.20;102726.00;;;;5049820;28;20214;-78
2021/09/21 04:34:58;;;;;;;2.45;1.88;;;;;15.20;102726.00;;;;5053343;28;20553;-78
2021/09/21 04:37:25;;;;;;;2.97;1.90;;;;;15.20;102720.00;;;;5050677;28;20199;-78
2021/09/21 04:39:52;;;;;;;2.22;1.77;;;;;15.20;102727.00;;;;5055038;28;20677;-78
2021/09/21 04:42:22;;;;;;;2.35;1.75;;;;;15.10;102724.00;;;;5049725;28;20227;-78
2021/09/21 04:44:49;;;;;;;4.35;1.90;;;;;15.10;102723.00;;;;5049728;28;20196;-79
2021/09/21 04:47:18;;;;;;;2.15;1.70;;;;;15.10;102708.00;;;;5061221;28;20202;-78
2021/09/21 04:49:45;;;;;;;1.75;1.35;;;;;15.10;102716.00;;;;5050601;28;20234;-78
2021/09/21 04:52:13;;;;;;;1.70;1.55;;;;;15.10;102724.00;;;;5065192;28;20202;-78
2021/09/21 04:54:40;;;;;;;2.42;1.55;;;;;15.10;102729.00;;;;5068439;28;20222;-78
2021/09/21 04:57:07;;;;;;;2.95;1.40;;;;;15.10;102736.00;;;;5065402;28;20242;-78
2021/09/21 04:59:35;;;;;;;1.52;1.15;;;;;15.00;102739.00;;;;5063732;28;20202;-79
2021/09/21 05:02:02;;;;;;;2.17;1.67;;;;;15.00;102744.00;;;;5068323;28;20210;-78
2021/09/21 05:04:31;;;;;;;2.10;1.73;;;;;15.00;102751.00;;;;5056892;28;20195;-78
2021/09/21 05:06:58;;;;;;;3.00;1.48;;;;;15.00;102749.00;;;;5054115;28;20195;-78
2021/09/21 05:09:26;;;;;;;2.65;1.90;;;;;15.00;102750.00;;;;5058181;28;20203;-78
2021/09/21 05:11:53;;;;;;;2.10;1.67;;;;;15.00;102757.00;;;;5057643;28;20206;-78
2021/09/21 05:14:20;;;;;;;2.63;1.73;;;;;15.00;102757.00;;;;5052618;28;20211;-79
2021/09/21 05:16:47;;;;;;;1.83;1.45;;;;;15.00;102760.00;;;;5048270;28;20195;-78
2021/09/21 05:19:14;;;;;;;2.28;1.67;;;;;15.00;102754.00;;;;5048861;28;20199;-78
2021/09/21 05:21:43;;;;;;;2.80;1.52;;;;;15.00;102767.00;;;;5046103;28;20225;-78
2021/09/21 05:24:11;;;;;;;2.28;1.63;;;;;15.00;102763.00;;;;5055682;28;20222;-79
2021/09/21 05:26:38;;;;;;;3.75;1.92;;;;;15.00;102762.00;;;;5052103;28;20203;-78
2021/09/21 05:29:05;;;;;;;2.75;1.90;;;;;15.00;102762.00;;;;5060978;28;20210;-78
2021/09/21 05:31:33;;;;;;;2.20;1.65;;;;;15.00;102765.00;;;;5065746;28;20199;-79
2021/09/21 05:34:01;;;;;;;1.77;1.42;;;;;15.00;102763.00;;;;5057048;28;20200;-79
2021/09/21 05:36:28;;;;;;;1.92;1.58;;;;;15.00;102769.00;;;;5048839;28;20219;-77
2021/09/21 05:38:57;;;;;;;2.83;1.90;;;;;15.00;102764.00;;;;5067242;28;20237;-77
2021/09/21 05:41:24;;;;;;;1.80;1.50;;;;;15.00;102756.00;;;;5069117;28;20223;-77
2021/09/21 05:43:51;;;;;;;2.42;1.88;;;;;15.00;102749.00;;;;5068142;28;20726;-77
2021/09/21 05:46:18;;;;;;;2.22;1.67;;;;;15.00;102749.00;;;;5067720;28;20203;-77
2021/09/21 05:48:46;;;;;;;3.55;1.80;;;;;15.00;102752.00;;;;5051414;28;20200;-77
2021/09/21 05:51:13;;;;;;;1.95;1.73;;;;;15.00;102760.00;;;;5067173;28;20202;-77
2021/09/21 05:53:40;;;;;;;2.72;1.90;;;;;15.00;102767.00;;;;5068448;28;20199;-76
2021/09/21 05:56:09;;;;;;;2.10;1.75;;;;;15.00;102766.00;;;;5063674;28;20196;-78
2021/09/21 05:58:36;;;;;;;1.90;1.60;;;;;15.00;102766.00;;;;5052322;28;20203;-77
2021/09/21 06:01:03;;;;;;;2.47;1.88;;;;;15.00;102762.00;;;;5052650;28;20191;-77
2021/09/21 06:03:31;;;;;;;2.00;1.50;;;;;15.00;102762.00;;;;5068406;28;20254;-78
2021/09/21 06:05:59;;;;;;;3.38;1.80;;;;;15.10;102762.00;;;;5056632;28;20258;-79
2021/09/21 06:08:26;;;;;;;2.78;1.83;;;;;15.10;102765.00;;;;5054226;28;20200;-78
2021/09/21 06:10:53;;;;;;;2.50;1.75;;;;;15.10;102767.00;;;;5052137;28;20200;-80
2021/09/21 06:13:22;;;;;;;3.53;1.90;;;;;15.10;102774.00;;;;5047805;28;20199;-79
2021/09/21 06:15:49;;;;;;;2.40;1.70;;;;;15.10;102777.00;;;;5047341;28;20208;-80
2021/09/21 06:18:18;;;;;;;2.50;1.80;;;;;15.10;102779.00;;;;5053427;28;20221;-80
2021/09/21 06:20:46;;;;;;;3.00;1.90;;;;;15.10;102777.00;;;;5067844;28;20191;-80
2021/09/21 06:23:14;;;;;;;3.90;1.90;;;;;15.20;102792.00;;;;5066767;28;20227;-79
2021/09/21 06:25:41;;;;;;;1.98;1.52;;;;;15.20;102789.00;;;;5056657;28;20203;-79
2021/09/21 06:28:08;;;;;;;3.55;2.25;;;;;15.20;102784.00;;;;5061473;28;21094;-79
2021/09/21 06:30:37;;;;;;;3.75;2.15;;;;;15.20;102792.00;;;;5068242;28;20211;-80
2021/09/21 06:33:04;;;;;;;2.13;1.85;;;;;15.20;102790.00;;;;5067673;28;21050;-79
2021/09/21 06:35:32;;;;;;;2.25;1.90;;;;;15.20;102799.00;;;;5066770;28;20692;-79
2021/09/21 06:37:59;;;;;;;2.35;1.92;;;;;15.30;102798.00;;;;5068268;28;20198;-79
2021/09/21 06:40:26;;;;;;;2.25;2.03;;;;;15.30;102799.00;;;;5053091;28;20235;-79
2021/09/21 06:42:54;;;;;;;2.90;2.15;;;;;15.40;102801.00;;;;5047383;28;20641;-79
2021/09/21 06:45:21;;;;;;;3.55;2.47;;;;;15.40;102798.00;;;;5047841;28;20199;-79
2021/09/21 06:47:50;;;;;;;4.25;2.20;;;;;15.50;102802.00;;;;5047445;28;20207;-80
2021/09/21 06:50:18;;;;;;;2.65;1.88;;;;;15.50;102802.00;;;;5048387;28;20203;-80
2021/09/21 06:52:45;;;;;;;4.82;2.03;;;;;15.60;102802.00;;;;5048077;28;20208;-79
2021/09/21 06:55:13;;;;;;;2.65;1.75;;;;;15.60;102804.00;;;;5048952;28;20203;-79
2021/09/21 06:57:41;;;;;;;2.63;2.05;;;;;15.70;102816.00;;;;5054864;28;20272;-80
2021/09/21 07:00:10;;;;;;;3.33;2.25;;;;;15.80;102822.00;;;;5048720;28;20237;-78
2021/09/21 07:02:37;;;;;;;3.00;2.10;;;;;15.90;102821.00;;;;5067475;28;20201;-78
2021/09/21 07:05:07;;;;;;;2.42;1.73;;;;;15.90;102824.00;;;;5061741;28;20201;-78
2021/09/21 07:07:34;;;;;;;2.78;1.70;;;;;16.00;102821.00;;;;5048326;28;20196;-78
2021/09/21 07:10:01;;;;;;;2.83;2.17;;;;;16.10;102822.00;;;;5048575;28;20195;-78
2021/09/21 07:12:28;;;;;;;5.45;2.33;;;;;16.20;102817.00;;;;5047485;28;20199;-79
2021/09/21 07:14:56;;;;;;;4.40;2.50;;;;;16.30;102824.00;;;;5051688;28;20196;-79
2021/09/21 07:17:23;;;;;;;2.78;2.03;;;;;16.40;102831.00;;;;5051441;28;20214;-79
2021/09/21 07:19:50;;;;;;;3.00;2.10;;;;;16.40;102833.00;;;;5049221;28;20196;-79
2021/09/21 07:22:19;;;;;;;4.18;2.38;;;;;16.50;102849.00;;;;5046872;28;20196;-80
2021/09/21 07:24:46;;;;;;;3.58;2.38;;;;;16.70;102848.00;;;;5050214;28;20218;-79
2021/09/21 07:27:14;;;;;;;2.25;1.98;;;;;16.80;102847.00;;;;5051946;28;20200;-80
2021/09/21 07:29:41;;;;;;;2.30;1.90;;;;;16.90;102843.00;;;;5049657;28;20195;-80
2021/09/21 07:32:08;;;;;;;2.60;2.00;;;;;17.00;102844.00;;;;5064714;28;20198;-80
2021/09/21 07:34:35;;;;;;;3.85;2.60;;;;;17.10;102848.00;;;;5050050;28;20577;-80
2021/09/21 07:37:03;;;;;;;3.25;2.25;;;;;17.20;102850.00;;;;5052237;28;20230;-80
2021/09/21 07:39:32;;;;;;;3.08;2.22;;;;;17.30;102853.00;;;;5052667;28;20731;-80
2021/09/21 07:41:59;;;;;;;3.42;2.17;;;;;17.40;102865.00;;;;5059546;28;20241;-80
2021/09/21 07:44:26;;;;;;;3.33;1.88;;;;;17.50;102866.00;;;;5056612;28;20226;-80
2021/09/21 07:46:54;;;;;;;2.58;1.60;;;;;17.60;102870.00;;;;5057469;28;20191;-80
2021/09/21 07:49:21;;;;;;;2.58;2.22;;;;;17.70;102882.00;;;;5056294;28;20245;-80
2021/09/21 07:51:49;;;;;;;4.57;2.03;;;;;17.80;102873.00;;;;5054568;28;20206;-80
2021/09/21 07:54:16;;;;;;;4.63;1.73;;;;;17.90;102878.00;;;;5053912;28;20199;-80
2021/09/21 07:56:45;;;;;;;3.53;2.42;;;;;18.00;102880.00;;;;5051052;28;20222;-80
2021/09/21 07:59:12;;;;;;;4.55;2.70;;;;;18.10;102883.00;;;;5056797;28;20226;-80
2021/09/21 08:01:40;;;;;;;3.45;2.33;;;;;18.20;102885.00;;;;5070534;28;20199;-80
2021/09/21 08:04:08;;;;;;;3.17;2.15;;;;;18.30;102888.00;;;;5066960;28;20235;-79
2021/09/21 08:06:35;;;;;;;2.30;2.10;;;;;18.50;102882.00;;;;5070057;28;20687;-79
2021/09/21 08:09:02;;;;;;;2.33;2.00;;;;;18.60;102887.00;;;;5071150;28;20194;-80
2021/09/21 08:11:30;;;;;;;3.33;2.25;;;;;18.70;102897.00;;;;5063446;28;20195;-80
2021/09/21 08:14:03;;;;;;;2.80;2.05;;;;;18.80;102887.00;;;;5050684;28;20203;-81
2021/09/21 08:16:33;;;;;;;2.30;2.05;;;;;18.90;102900.00;;;;5050107;28;20545;-80
2021/09/21 08:19:00;;;;;;;3.42;2.10;;;;;19.00;102904.00;;;;5063036;28;20200;-79
2021/09/21 08:21:27;;;;;;;4.90;2.50;;;;;19.20;102901.00;;;;5064071;28;20598;-80
2021/09/21 08:23:55;;;;;;;2.55;2.30;;;;;19.30;102904.00;;;;5049984;28;21064;-80
2021/09/21 08:26:22;;;;;;;3.38;2.30;;;;;19.40;102899.00;;;;5061102;28;20218;-80
2021/09/21 08:28:49;;;;;;;3.38;2.20;;;;;19.60;102908.00;;;;5050858;28;20196;-80
2021/09/21 08:31:18;;;;;;;4.57;2.35;;;;;19.70;102906.00;;;;5050183;28;20215;-80
2021/09/21 08:33:45;;;;;;;2.33;2.10;;;;;19.80;102917.00;;;;5056728;28;20206;-80
2021/09/21 08:36:13;;;;;;;2.92;1.88;;;;;19.90;102912.00;;;;5060502;28;20223;-80
2021/09/21 08:38:40;;;;;;;2.65;1.58;;;;;20.00;102905.00;;;;5058182;28;20218;-80
2021/09/21 08:41:07;;;;;;;2.03;1.70;;;;;20.20;102912.00;;;;5055463;28;20816;-80
2021/09/21 08:43:35;;;;;;;1.52;1.42;;;;;20.30;102915.00;;;;5049777;28;20223;-80
2021/09/21 08:46:02;;;;;;;2.05;1.58;;;;;20.50;102914.00;;;;5050214;28;20191;-80
2021/09/21 08:48:31;;;;;;;1.77;1.48;;;;;20.60;102920.00;;;;5049907;28;20214;-80
2021/09/21 08:50:58;;;;;;;2.03;1.58;;;;;20.70;102921.00;;;;5060630;28;20191;-80
2021/09/21 08:53:25;;;;;;;3.60;1.75;;;;;20.80;102932.00;;;;5070175;28;20210;-80
2021/09/21 08:55:53;;;;;;;2.38;2.05;;;;;20.90;102921.00;;;;5067383;28;20199;-80
2021/09/21 08:58:24;;;;;;;2.67;1.95;;;;;21.00;102916.00;;;;5056129;28;20564;-78
2021/09/21 09:00:52;;;;;;;2.75;1.95;;;;;21.10;102927.00;;;;5067079;28;20687;-79
2021/09/21 09:03:20;;;;;;;2.13;1.58;;;;;21.20;102938.00;;;;5050624;28;20762;-79
2021/09/21 09:05:50;;;;;;;2.10;1.90;;;;;21.30;102931.00;;;;5057614;28;20285;-79
2021/09/21 09:08:30;;;;;;;2.90;2.08;;;;;21.40;102931.00;;;;5064935;28;20723;-78
2021/09/21 09:11:11;;;;;;;2.00;1.73;;;;;21.50;102921.00;;;;5064960;28;20201;-80
2021/09/21 09:13:39;;;;;;;2.22;1.80;;;;;21.70;102923.00;;;;5059378;28;20199;-80
2021/09/21 09:16:12;;;;;;;3.30;1.90;;;;;21.80;102925.00;;;;5058989;28;20552;-80
2021/09/21 09:18:40;;;;;;;2.00;1.65;;;;;21.90;102925.00;;;;5049561;28;20230;-80
2021/09/21 09:21:09;;;;;;;2.35;1.95;;;;;22.00;102917.00;;;;5052584;28;20201;-80
2021/09/21 09:23:48;;;;;;;2.90;1.83;;;;;22.10;102919.00;;;;5048223;28;20314;-79
2021/09/21 09:26:19;;;;;;;2.30;2.10;;;;;22.30;102914.00;;;;5059951;28;20198;-80
2021/09/21 09:28:46;;;;;;;2.42;1.42;;;;;22.40;102922.00;;;;5049687;28;20191;-79
2021/09/21 09:31:24;;;;;;;1.65;1.50;;;;;22.40;102919.00;;;;5066880;28;20203;-79
2021/09/21 09:33:51;;;;;;;2.10;1.63;;;;;22.60;102927.00;;;;5059992;28;20198;-79
2021/09/21 09:36:25;;;;;;;2.28;1.65;;;;;22.60;102935.00;;;;5053426;28;20215;-78
2021/09/21 09:39:01;;;;;;;3.88;1.60;;;;;22.70;102931.00;;;;5056829;28;20200;-80
2021/09/21 09:41:38;;;;;;;1.65;1.38;;;;;22.80;102930.00;;;;5056936;28;20964;-80
2021/09/21 09:44:12;;;;;;;1.60;1.20;;;;;22.90;102935.00;;;;5062277;28;20225;-79
2021/09/21 09:46:45;;;;;;;1.75;1.65;;;;;23.00;102930.00;;;;5054923;28;20195;-79
2021/09/21 09:49:13;;;;;;;2.10;1.63;;;;;23.10;102933.00;;;;5057900;28;20656;-80
2021/09/21 09:51:49;;;;;;;1.98;1.73;;;;;23.20;102935.00;;;;5060266;28;20304;-79
2021/09/21 09:54:17;;;;;;;1.92;1.30;;;;;23.30;102932.00;;;;5065682;28;20198;-79
2021/09/21 09:56:46;;;;;;;1.80;1.70;;;;;23.40;102935.00;;;;5068781;28;20198;-80
2021/09/21 09:59:15;;;;;;;2.38;1.20;;;;;23.50;102940.00;;;;5057163;28;20273;-80
2021/09/21 10:01:43;;;;;;;2.83;1.45;;;;;23.60;102938.00;;;;5051608;28;20293;-80
2021/09/21 10:04:12;;;;;;;2.20;1.65;;;;;23.60;102949.00;;;;5058952;28;20226;-80
2021/09/21 10:06:40;;;;;;;1.70;1.40;;;;;23.70;102944.00;;;;5047579;28;20200;-79
2021/09/21 10:09:09;;;;;;;2.47;1.50;;;;;23.70;102936.00;;;;5048098;28;20200;-80
2021/09/21 10:11:37;;;;;;;1.50;1.27;;;;;23.80;102935.00;;;;5046961;28;20225;-80
2021/09/21 10:14:06;;;;;;;2.05;1.85;;;;;23.90;102941.00;;;;5047422;28;20294;-80
2021/09/21 10:16:34;;;;;;;2.58;1.33;;;;;23.90;102940.00;;;;5053277;28;20218;-80
2021/09/21 10:19:03;;;;;;;2.83;1.38;;;;;24.00;102928.00;;;;5048847;28;20642;-79
2021/09/21 10:21:36;;;;;;;1.40;1.20;;;;;24.10;102932.00;;;;5059710;28;20573;-80
2021/09/21 10:24:07;;;;;;;1.40;1.10;;;;;24.10;102935.00;;;;5056667;28;20222;-80
2021/09/21 10:26:41;;;;;;;1.73;1.42;;;;;24.10;102938.00;;;;5054572;28;20253;-80
2021/09/21 10:29:09;;;;;;;1.52;1.40;;;;;24.20;102931.00;;;;5059998;28;20219;-80
2021/09/21 10:31:39;;;;;;;1.67;1.15;;;;;24.30;102935.00;;;;5056160;28;20187;-80
2021/09/21 10:34:14;;;;;;;1.55;1.45;;;;;24.30;102937.00;;;;5067566;28;20268;-80
2021/09/21 10:36:52;;;;;;;2.20;1.17;;;;;24.40;102943.00;;;;5066777;28;20230;-80
2021/09/21 10:39:21;;;;;;;2.78;1.58;;;;;24.50;102934.00;;;;5048277;28;20211;-80
2021/09/21 10:41:54;;;;;;;2.33;1.60;;;;;24.50;102945.00;;;;5047792;28;20223;-80
2021/09/21 10:44:22;;;;;;;1.60;1.45;;;;;24.60;102933.00;;;;5060120;28;20630;-80
2021/09/21 10:46:53;;;;;;;1.63;1.10;;;;;24.70;102943.00;;;;5067700;28;20199;-80
2021/09/21 10:49:40;;;;;;;1.38;1.20;;;;;24.60;102943.00;;;;5067752;28;20203;-80
2021/09/21 10:52:10;;;;;;;1.50;1.00;;;;;24.80;102948.00;;;;5063448;28;20217;-80
2021/09/21 10:54:40;;;;;;;1.90;1.35;;;;;24.90;102948.00;;;;5053008;28;20253;-80
2021/09/21 10:57:14;;;;;;;2.72;1.10;;;;;24.90;102949.00;;;;5051848;28;20210;-80
2021/09/21 10:59:56;;;;;;;1.05;0.95;;;;;25.00;102941.00;;;;5046036;28;20196;-81
2021/09/21 11:02:25;;;;;;;1.35;0.90;;;;;25.10;102955.00;;;;5046988;28;20196;-80
2021/09/21 11:04:53;;;;;;;1.25;1.15;;;;;25.10;102954.00;;;;5048254;28;20220;-81
2021/09/21 11:07:22;;;;;;;1.35;1.10;;;;;25.10;102950.00;;;;5050965;28;20206;-80
2021/09/21 11:09:52;;;;;;;1.52;1.10;;;;;25.10;102948.00;;;;5049968;28;20633;-80
2021/09/21 11:12:23;;;;;;;1.63;1.13;;;;;25.20;102948.00;;;;5064623;28;20195;-80
2021/09/21 11:14:52;;;;;;;1.52;1.00;;;;;25.20;102947.00;;;;5064626;28;20203;-80
2021/09/21 11:17:23;;;;;;;3.55;1.20;;;;;25.30;102951.00;;;;5050353;28;20206;-80
2021/09/21 11:19:53;;;;;;;1.20;1.05;;;;;25.30;102939.00;;;;5064567;28;20233;-80
2021/09/21 11:22:26;;;;;;;4.40;1.00;;;;;25.30;102942.00;;;;5056052;28;20215;-81
2021/09/21 11:24:59;;;;;;;2.25;1.00;;;;;25.30;102944.00;;;;5051317;28;20258;-80
2021/09/21 11:27:28;;;;;;;1.65;1.10;;;;;25.40;102941.00;;;;5050611;28;20191;-80
2021/09/21 11:30:02;;;;;;;0.68;0.68;;;;;25.40;102944.00;;;;5058055;28;20294;-81
2021/09/21 11:32:31;;;;;;;3.05;0.98;;;;;25.40;102944.00;;;;5062786;28;20201;-79
2021/09/21 11:35:00;;;;;;;1.20;1.00;;;;;25.50;102947.00;;;;5051754;28;20196;-80
2021/09/21 11:37:28;;;;;;;1.67;1.05;;;;;25.40;102942.00;;;;5051578;28;20216;-80
2021/09/21 11:39:56;;;;;;;1.98;1.15;;;;;25.50;102943.00;;;;5055239;28;20203;-80
2021/09/21 11:42:25;;;;;;;1.40;1.20;;;;;25.50;102943.00;;;;5060940;28;20218;-80
2021/09/21 11:44:59;;;;;;;1.50;1.05;;;;;25.40;102934.00;;;;5053514;28;20230;-80
2021/09/21 11:47:36;;;;;;;2.22;1.70;;;;;25.40;102938.00;;;;5058043;28;20290;-80
2021/09/21 11:50:07;;;;;;;1.55;1.08;;;;;25.50;102932.00;;;;5055753;28;20198;-80
2021/09/21 11:52:34;;;;;;;1.15;0.90;;;;;25.50;102928.00;;;;5061406;28;20537;-80
2021/09/21 11:55:02;;;;;;;2.45;0.80;;;;;25.50;102930.00;;;;5053399;28;20206;-80
2021/09/21 11:57:29;;;;;;;1.23;0.80;;;;;25.50;102925.00;;;;5061891;28;20199;-80
2021/09/21 11:59:58;;;;;;;1.30;0.80;;;;;25.50;102928.00;;;;5066762;28;20194;-80
2021/09/21 12:02:33;;;;;;;1.45;1.13;;;;;25.50;102932.00;;;;5062612;28;20207;-80
2021/09/21 12:05:00;;;;;;;1.55;1.02;;;;;25.40;102932.00;;;;5050574;28;20288;-80
2021/09/21 12:07:28;;;;;;;1.20;0.90;;;;;25.40;102931.00;;;;5056614;28;20206;-80
2021/09/21 12:09:56;;;;;;;0.82;0.80;;;;;25.40;102931.00;;;;5051689;28;20219;-81
2021/09/21 12:12:23;;;;;;;1.17;1.00;;;;;25.40;102933.00;;;;5054723;28;20211;-80
2021/09/21 12:15:00;;;;;;;1.05;0.98;;;;;25.30;102936.00;;;;5057555;28;20195;-80
2021/09/21 12:17:27;;;;;;;1.30;1.05;;;;;25.40;102932.00;;;;5057734;28;20592;-80
2021/09/21 12:19:59;;;;;;;1.60;1.20;;;;;25.40;102936.00;;;;5051339;28;20247;-79
2021/09/21 12:22:26;;;;;;;1.48;0.93;;;;;25.40;102933.00;;;;5059434;28;20680;-79
2021/09/21 12:24:54;;;;;;;1.75;1.10;;;;;25.50;102932.00;;;;5050969;28;20226;-80